sensor_id;sensor_type;location;lat;lon;timestamp;pressure;altitude;pressure_sealevel;temperature;humidity
63903;BME280;50072;50.678;13.938;2022-12-07T00:01:22;99335.84;;;3.09;87.53
63903;BME280;50072;50.678;13.938;2022-12-07T00:03:49;99340.25;;;3.07;87.84
63903;BME280;50072;50.678;13.938;2022-12-07T00:06:17;99338.47;;;3.06;88.00
63903;BME280;50072;50.678;13.938;2022-12-07T00:08:44;99335.84;;;3.10;88.37
63903;BME280;50072;50.678;13.938;2022-12-07T00:11:17;99335.84;;;3.20;88.62
63903;BME280;50072;50.678;13.938;2022-12-07T00:13:43;99336.72;;;3.28;89.34
63903;BME280;50072;50.678;13.938;2022-12-07T00:16:15;99329.66;;;3.27;89.28
63903;BME280;50072;50.678;13.938;2022-12-07T00:18:42;99334.94;;;3.35;88.19
63903;BME280;50072;50.678;13.938;2022-12-07T00:21:16;99328.75;;;3.40;87.16
63903;BME280;50072;50.678;13.938;2022-12-07T00:23:44;99316.41;;;3.36;86.50
63903;BME280;50072;50.678;13.938;2022-12-07T00:28:40;99325.25;;;3.35;84.61
63903;BME280;50072;50.678;13.938;2022-12-07T00:31:11;99316.41;;;3.33;83.76
63903;BME280;50072;50.678;13.938;2022-12-07T00:33:38;99319.06;;;3.32;84.19
63903;BME280;50072;50.678;13.938;2022-12-07T00:36:07;99313.78;;;3.39;84.99
63903;BME280;50072;50.678;13.938;2022-12-07T00:38:35;99306.72;;;3.43;83.85
63903;BME280;50072;50.678;13.938;2022-12-07T00:41:05;99308.47;;;3.47;84.55
63903;BME280;50072;50.678;13.938;2022-12-07T00:43:31;99304.97;;;3.45;82.57
63903;BME280;50072;50.678;13.938;2022-12-07T00:45:57;99296.16;;;3.37;83.47
63903;BME280;50072;50.678;13.938;2022-12-07T00:48:23;99299.69;;;3.33;83.41
63903;BME280;50072;50.678;13.938;2022-12-07T00:50:50;99308.50;;;3.32;84.38
63903;BME280;50072;50.678;13.938;2022-12-07T00:53:16;99311.16;;;3.27;84.21
63903;BME280;50072;50.678;13.938;2022-12-07T00:55:42;99302.38;;;3.11;84.25
63903;BME280;50072;50.678;13.938;2022-12-07T00:58:08;99295.31;;;3.02;83.84
63903;BME280;50072;50.678;13.938;2022-12-07T01:00:40;99300.59;;;3.11;84.01
63903;BME280;50072;50.678;13.938;2022-12-07T01:03:08;99304.13;;;2.98;84.69
63903;BME280;50072;50.678;13.938;2022-12-07T01:05:34;99299.72;;;2.97;84.90
63903;BME280;50072;50.678;13.938;2022-12-07T01:08:00;99297.94;;;2.91;85.37
63903;BME280;50072;50.678;13.938;2022-12-07T01:10:26;99305.03;;;2.89;85.45
63903;BME280;50072;50.678;13.938;2022-12-07T01:12:52;99305.91;;;2.85;85.42
63903;BME280;50072;50.678;13.938;2022-12-07T01:15:18;99304.13;;;2.89;85.14
63903;BME280;50072;50.678;13.938;2022-12-07T01:17:44;99305.88;;;2.88;84.37
63903;BME280;50072;50.678;13.938;2022-12-07T01:20:11;99308.53;;;2.96;84.50
63903;BME280;50072;50.678;13.938;2022-12-07T01:22:38;99298.84;;;2.95;84.28
63903;BME280;50072;50.678;13.938;2022-12-07T01:25:06;99309.41;;;2.98;84.59
63903;BME280;50072;50.678;13.938;2022-12-07T01:27:33;99299.72;;;2.99;85.09
63903;BME280;50072;50.678;13.938;2022-12-07T01:30:00;99301.50;;;2.98;85.30
63903;BME280;50072;50.678;13.938;2022-12-07T01:32:26;99305.00;;;2.96;84.84
63903;BME280;50072;50.678;13.938;2022-12-07T01:34:52;99306.78;;;2.95;85.13
63903;BME280;50072;50.678;13.938;2022-12-07T01:37:18;99305.88;;;2.96;85.04
63903;BME280;50072;50.678;13.938;2022-12-07T01:39:44;99303.25;;;3.04;86.10
63903;BME280;50072;50.678;13.938;2022-12-07T01:42:10;99297.97;;;3.04;86.34
63903;BME280;50072;50.678;13.938;2022-12-07T01:47:40;99311.19;;;3.02;86.60
63903;BME280;50072;50.678;13.938;2022-12-07T01:50:07;99312.94;;;3.00;86.90
63903;BME280;50072;50.678;13.938;2022-12-07T01:52:34;99302.34;;;2.99;87.73
63903;BME280;50072;50.678;13.938;2022-12-07T01:55:12;99307.66;;;2.97;88.67
63903;BME280;50072;50.678;13.938;2022-12-07T01:57:41;99306.75;;;2.93;89.95
63903;BME280;50072;50.678;13.938;2022-12-07T02:00:10;99304.13;;;2.90;90.55
63903;BME280;50072;50.678;13.938;2022-12-07T02:05:17;99306.78;;;2.81;90.37
63903;BME280;50072;50.678;13.938;2022-12-07T02:07:43;99306.75;;;2.93;91.98
63903;BME280;50072;50.678;13.938;2022-12-07T02:10:23;99305.88;;;2.90;92.68
63903;BME280;50072;50.678;13.938;2022-12-07T02:13:00;99295.28;;;2.99;93.26
63903;BME280;50072;50.678;13.938;2022-12-07T02:18:25;99292.66;;;3.10;94.74
63903;BME280;50072;50.678;13.938;2022-12-07T02:21:16;99300.59;;;2.96;92.80
63903;BME280;50072;50.678;13.938;2022-12-07T02:32:54;99289.13;;;2.83;94.87
63903;BME280;50072;50.678;13.938;2022-12-07T02:35:56;99281.22;;;2.74;95.48
63903;BME280;50072;50.678;13.938;2022-12-07T02:38:43;99282.97;;;2.72;95.93
63903;BME280;50072;50.678;13.938;2022-12-07T02:41:28;99275.94;;;2.58;96.31
63903;BME280;50072;50.678;13.938;2022-12-07T02:43:59;99277.66;;;2.47;96.62
63903;BME280;50072;50.678;13.938;2022-12-07T02:46:30;99267.09;;;2.44;97.68
63903;BME280;50072;50.678;13.938;2022-12-07T02:48:58;99272.41;;;2.39;97.60
63903;BME280;50072;50.678;13.938;2022-12-07T02:51:30;99272.38;;;2.53;97.06
63903;BME280;50072;50.678;13.938;2022-12-07T02:53:56;99269.75;;;2.50;96.80
63903;BME280;50072;50.678;13.938;2022-12-07T02:59:26;99265.34;;;2.49;97.28
63903;BME280;50072;50.678;13.938;2022-12-07T03:07:21;99260.06;;;2.35;98.30
63903;BME280;50072;50.678;13.938;2022-12-07T03:10:01;99267.94;;;2.28;98.70
63903;BME280;50072;50.678;13.938;2022-12-07T03:15:26;99266.19;;;2.27;98.43
63903;BME280;50072;50.678;13.938;2022-12-07T03:17:56;99263.53;;;2.20;98.27
63903;BME280;50072;50.678;13.938;2022-12-07T03:20:25;99262.66;;;2.15;98.15
63903;BME280;50072;50.678;13.938;2022-12-07T03:22:54;99252.06;;;2.09;96.03
63903;BME280;50072;50.678;13.938;2022-12-07T03:25:20;99249.44;;;2.12;96.18
63903;BME280;50072;50.678;13.938;2022-12-07T03:27:58;99247.69;;;2.13;96.77
63903;BME280;50072;50.678;13.938;2022-12-07T03:30:34;99249.44;;;2.07;97.09
63903;BME280;50072;50.678;13.938;2022-12-07T03:33:09;99244.16;;;2.01;96.90
63903;BME280;50072;50.678;13.938;2022-12-07T03:35:40;99253.78;;;1.95;97.67
63903;BME280;50072;50.678;13.938;2022-12-07T03:38:28;99252.91;;;1.91;99.09
63903;BME280;50072;50.678;13.938;2022-12-07T03:41:00;99247.66;;;1.97;99.27
63903;BME280;50072;50.678;13.938;2022-12-07T03:43:29;99246.78;;;2.04;99.25
63903;BME280;50072;50.678;13.938;2022-12-07T03:46:50;99239.78;;;2.14;98.70
63903;BME280;50072;50.678;13.938;2022-12-07T03:52:00;99245.00;;;2.05;98.87
63903;BME280;50072;50.678;13.938;2022-12-07T03:54:34;99238.88;;;2.07;98.95
63903;BME280;50072;50.678;13.938;2022-12-07T03:57:02;99247.69;;;2.13;99.30
63903;BME280;50072;50.678;13.938;2022-12-07T03:59:30;99245.91;;;2.10;99.18
63903;BME280;50072;50.678;13.938;2022-12-07T04:01:59;99232.72;;;2.05;99.24
63903;BME280;50072;50.678;13.938;2022-12-07T04:04:27;99237.13;;;2.14;99.04
63903;BME280;50072;50.678;13.938;2022-12-07T04:06:53;99232.72;;;2.19;98.55
63903;BME280;50072;50.678;13.938;2022-12-07T04:09:20;99234.50;;;2.27;96.90
63903;BME280;50072;50.678;13.938;2022-12-07T04:11:46;99237.13;;;2.25;97.17
63903;BME280;50072;50.678;13.938;2022-12-07T04:14:12;99231.00;;;2.18;93.40
63903;BME280;50072;50.678;13.938;2022-12-07T04:16:48;99224.81;;;2.18;89.91
63903;BME280;50072;50.678;13.938;2022-12-07T04:19:15;99234.50;;;2.17;87.99
63903;BME280;50072;50.678;13.938;2022-12-07T04:21:42;99219.53;;;2.15;83.10
63903;BME280;50072;50.678;13.938;2022-12-07T04:24:07;99223.03;;;2.06;83.35
63903;BME280;50072;50.678;13.938;2022-12-07T04:26:33;99218.63;;;2.08;85.16
63903;BME280;50072;50.678;13.938;2022-12-07T04:28:59;99217.75;;;2.03;83.32
63903;BME280;50072;50.678;13.938;2022-12-07T04:31:25;99225.66;;;2.00;84.22
63903;BME280;50072;50.678;13.938;2022-12-07T04:33:50;99220.38;;;2.03;81.38
63903;BME280;50072;50.678;13.938;2022-12-07T04:36:17;99229.22;;;2.11;79.01
63903;BME280;50072;50.678;13.938;2022-12-07T04:38:45;99226.56;;;2.17;78.75
63903;BME280;50072;50.678;13.938;2022-12-07T04:41:11;99233.63;;;2.21;77.96
63903;BME280;50072;50.678;13.938;2022-12-07T04:43:37;99223.06;;;2.20;79.47
63903;BME280;50072;50.678;13.938;2022-12-07T04:46:03;99229.22;;;2.20;80.58
63903;BME280;50072;50.678;13.938;2022-12-07T04:48:29;99225.69;;;2.26;79.30
63903;BME280;50072;50.678;13.938;2022-12-07T04:50:55;99211.63;;;2.22;78.44
63903;BME280;50072;50.678;13.938;2022-12-07T04:53:21;99220.41;;;2.28;79.36
63903;BME280;50072;50.678;13.938;2022-12-07T04:55:48;99211.63;;;2.22;78.97
63903;BME280;50072;50.678;13.938;2022-12-07T04:58:14;99203.72;;;2.26;80.19
63903;BME280;50072;50.678;13.938;2022-12-07T05:00:40;99209.84;;;2.32;81.54
63903;BME280;50072;50.678;13.938;2022-12-07T05:03:06;99196.66;;;2.29;84.03
63903;BME280;50072;50.678;13.938;2022-12-07T05:05:32;99201.06;;;2.35;81.80
63903;BME280;50072;50.678;13.938;2022-12-07T05:07:58;99188.72;;;2.31;82.50
63903;BME280;50072;50.678;13.938;2022-12-07T05:10:23;99198.41;;;2.38;80.87
63903;BME280;50072;50.678;13.938;2022-12-07T05:12:49;99205.47;;;2.37;81.21
63903;BME280;50072;50.678;13.938;2022-12-07T05:15:15;99197.56;;;2.33;80.65
63903;BME280;50072;50.678;13.938;2022-12-07T05:17:41;99200.19;;;2.28;79.09
63903;BME280;50072;50.678;13.938;2022-12-07T05:20:08;99197.53;;;2.27;79.38
63903;BME280;50072;50.678;13.938;2022-12-07T05:22:34;99190.50;;;2.35;79.16
63903;BME280;50072;50.678;13.938;2022-12-07T05:25:00;99192.28;;;2.30;79.04
63903;BME280;50072;50.678;13.938;2022-12-07T05:27:26;99194.03;;;2.18;80.28
63903;BME280;50072;50.678;13.938;2022-12-07T05:29:52;99179.91;;;1.98;80.74
63903;BME280;50072;50.678;13.938;2022-12-07T05:32:17;99176.38;;;2.00;81.24
63903;BME280;50072;50.678;13.938;2022-12-07T05:34:44;99175.50;;;1.90;83.42
63903;BME280;50072;50.678;13.938;2022-12-07T05:37:10;99181.63;;;1.74;82.40
63903;BME280;50072;50.678;13.938;2022-12-07T05:39:36;99166.63;;;1.61;82.85
63903;BME280;50072;50.678;13.938;2022-12-07T05:42:06;99175.38;;;1.43;83.84
63903;BME280;50072;50.678;13.938;2022-12-07T05:44:40;99160.38;;;1.34;85.06
63903;BME280;50072;50.678;13.938;2022-12-07T05:47:06;99176.19;;;1.31;84.68
63903;BME280;50072;50.678;13.938;2022-12-07T05:49:33;99177.09;;;1.31;84.28
63903;BME280;50072;50.678;13.938;2022-12-07T05:51:59;99176.22;;;1.37;83.67
63903;BME280;50072;50.678;13.938;2022-12-07T05:54:25;99184.16;;;1.43;84.91
63903;BME280;50072;50.678;13.938;2022-12-07T05:56:51;99181.50;;;1.37;84.08
63903;BME280;50072;50.678;13.938;2022-12-07T05:59:19;99175.34;;;1.40;87.18
63903;BME280;50072;50.678;13.938;2022-12-07T06:02:04;99177.13;;;1.45;88.89
63903;BME280;50072;50.678;13.938;2022-12-07T06:04:33;99175.41;;;1.53;89.47
63903;BME280;50072;50.678;13.938;2022-12-07T06:06:59;99176.25;;;1.52;89.34
63903;BME280;50072;50.678;13.938;2022-12-07T06:09:27;99175.41;;;1.57;90.35
63903;BME280;50072;50.678;13.938;2022-12-07T06:11:55;99176.25;;;1.49;90.33
63903;BME280;50072;50.678;13.938;2022-12-07T06:14:40;99172.69;;;1.35;90.75
63903;BME280;50072;50.678;13.938;2022-12-07T06:17:07;99172.72;;;1.41;90.28
63903;BME280;50072;50.678;13.938;2022-12-07T06:19:33;99161.28;;;1.42;91.40
63903;BME280;50072;50.678;13.938;2022-12-07T06:22:01;99163.94;;;1.42;91.65
63903;BME280;50072;50.678;13.938;2022-12-07T06:24:28;99162.16;;;1.40;91.37
63903;BME280;50072;50.678;13.938;2022-12-07T06:26:55;99172.69;;;1.35;91.25
63903;BME280;50072;50.678;13.938;2022-12-07T06:29:22;99157.78;;;1.37;91.97
63903;BME280;50072;50.678;13.938;2022-12-07T06:31:48;99155.94;;;1.27;92.16
63903;BME280;50072;50.678;13.938;2022-12-07T06:34:20;99160.34;;;1.22;91.91
63903;BME280;50072;50.678;13.938;2022-12-07T06:36:49;99162.13;;;1.26;91.77
63903;BME280;50072;50.678;13.938;2022-12-07T06:39:23;99167.41;;;1.36;92.45
63903;BME280;50072;50.678;13.938;2022-12-07T06:41:51;99167.47;;;1.41;93.31
63903;BME280;50072;50.678;13.938;2022-12-07T06:44:18;99167.47;;;1.43;93.01
63903;BME280;50072;50.678;13.938;2022-12-07T06:46:44;99154.22;;;1.35;92.61
63903;BME280;50072;50.678;13.938;2022-12-07T06:49:12;99162.13;;;1.33;92.84
63903;BME280;50072;50.678;13.938;2022-12-07T06:51:38;99152.50;;;1.35;93.86
63903;BME280;50072;50.678;13.938;2022-12-07T06:54:10;99152.53;;;1.48;93.72
63903;BME280;50072;50.678;13.938;2022-12-07T06:56:38;99161.34;;;1.53;93.28
63903;BME280;50072;50.678;13.938;2022-12-07T06:59:05;99171.03;;;1.60;92.72
63903;BME280;50072;50.678;13.938;2022-12-07T07:01:34;99163.13;;;1.63;90.31
63903;BME280;50072;50.678;13.938;2022-12-07T07:04:00;99165.75;;;1.68;90.23
63903;BME280;50072;50.678;13.938;2022-12-07T07:06:28;99160.47;;;1.65;91.32
63903;BME280;50072;50.678;13.938;2022-12-07T07:08:55;99169.31;;;1.70;91.03
63903;BME280;50072;50.678;13.938;2022-12-07T07:11:21;99168.41;;;1.63;88.53
63903;BME280;50072;50.678;13.938;2022-12-07T07:13:47;99166.63;;;1.64;84.49
63903;BME280;50072;50.678;13.938;2022-12-07T07:16:13;99169.25;;;1.56;83.10
63903;BME280;50072;50.678;13.938;2022-12-07T07:18:39;99173.66;;;1.60;82.40
63903;BME280;50072;50.678;13.938;2022-12-07T07:21:06;99171.03;;;1.65;80.86
63903;BME280;50072;50.678;13.938;2022-12-07T07:23:34;99172.81;;;1.72;81.79
63903;BME280;50072;50.678;13.938;2022-12-07T07:26:00;99167.53;;;1.75;81.13
63903;BME280;50072;50.678;13.938;2022-12-07T07:28:26;99171.94;;;1.70;80.43
63903;BME280;50072;50.678;13.938;2022-12-07T07:30:52;99176.34;;;1.79;80.16
63903;BME280;50072;50.678;13.938;2022-12-07T07:33:19;99175.44;;;1.73;80.96
63903;BME280;50072;50.678;13.938;2022-12-07T07:35:46;99189.53;;;1.77;80.65
63903;BME280;50072;50.678;13.938;2022-12-07T07:38:12;99175.50;;;1.83;81.09
63903;BME280;50072;50.678;13.938;2022-12-07T07:40:38;99186.91;;;1.86;80.19
63903;BME280;50072;50.678;13.938;2022-12-07T07:43:05;99170.22;;;1.94;81.04
63903;BME280;50072;50.678;13.938;2022-12-07T07:45:31;99171.97;;;2.01;81.49
63903;BME280;50072;50.678;13.938;2022-12-07T07:47:58;99171.13;;;1.93;81.33
63903;BME280;50072;50.678;13.938;2022-12-07T07:50:24;99171.97;;;1.85;82.88
63903;BME280;50072;50.678;13.938;2022-12-07T07:52:51;99171.09;;;1.86;83.36
63903;BME280;50072;50.678;13.938;2022-12-07T07:55:16;99171.13;;;1.93;83.94
63903;BME280;50072;50.678;13.938;2022-12-07T07:57:42;99172.84;;;1.94;83.70
63903;BME280;50072;50.678;13.938;2022-12-07T08:00:11;99179.00;;;1.88;84.51
63903;BME280;50072;50.678;13.938;2022-12-07T08:02:38;99179.00;;;1.89;84.23
63903;BME280;50072;50.678;13.938;2022-12-07T08:05:05;99181.66;;;1.96;83.84
63903;BME280;50072;50.678;13.938;2022-12-07T08:07:31;99188.69;;;1.94;84.59
63903;BME280;50072;50.678;13.938;2022-12-07T08:09:56;99174.63;;;1.92;85.89
63903;BME280;50072;50.678;13.938;2022-12-07T08:12:22;99183.44;;;1.97;86.93
63903;BME280;50072;50.678;13.938;2022-12-07T08:14:48;99185.22;;;2.07;87.12
63903;BME280;50072;50.678;13.938;2022-12-07T08:17:14;99189.63;;;2.14;86.30
63903;BME280;50072;50.678;13.938;2022-12-07T08:19:39;99184.34;;;2.11;85.61
63903;BME280;50072;50.678;13.938;2022-12-07T08:22:05;99190.47;;;2.18;85.75
63903;BME280;50072;50.678;13.938;2022-12-07T08:24:35;99197.53;;;2.27;85.47
63903;BME280;50072;50.678;13.938;2022-12-07T08:27:01;99190.50;;;2.38;86.78
63903;BME280;50072;50.678;13.938;2022-12-07T08:29:27;99186.97;;;2.42;86.12
63903;BME280;50072;50.678;13.938;2022-12-07T08:31:53;99175.53;;;2.57;86.93
63903;BME280;50072;50.678;13.938;2022-12-07T08:34:18;99175.53;;;2.63;86.85
63903;BME280;50072;50.678;13.938;2022-12-07T08:36:44;99193.13;;;2.86;87.47
63903;BME280;50072;50.678;13.938;2022-12-07T08:39:10;99202.78;;;3.07;86.89
63903;BME280;50072;50.678;13.938;2022-12-07T08:41:41;99197.44;;;3.25;85.69
63903;BME280;50072;50.678;13.938;2022-12-07T08:44:07;99193.06;;;3.18;84.85
63903;BME280;50072;50.678;13.938;2022-12-07T08:46:44;99206.28;;;3.12;84.53
63903;BME280;50072;50.678;13.938;2022-12-07T08:49:15;99211.56;;;3.18;84.88
63903;BME280;50072;50.678;13.938;2022-12-07T08:51:43;99211.56;;;3.18;84.78
63903;BME280;50072;50.678;13.938;2022-12-07T08:54:15;99209.81;;;3.11;85.26
63903;BME280;50072;50.678;13.938;2022-12-07T08:56:43;99214.19;;;3.21;85.77
63903;BME280;50072;50.678;13.938;2022-12-07T08:59:09;99208.97;;;2.95;85.73
63903;BME280;50072;50.678;13.938;2022-12-07T09:01:37;99202.78;;;2.94;86.89
63903;BME280;50072;50.678;13.938;2022-12-07T09:04:03;99201.00;;;3.09;87.68
63903;BME280;50072;50.678;13.938;2022-12-07T09:06:29;99215.09;;;3.02;87.66
63903;BME280;50072;50.678;13.938;2022-12-07T09:08:58;99202.78;;;3.04;88.64
63903;BME280;50072;50.678;13.938;2022-12-07T09:11:25;99197.50;;;3.01;88.38
63903;BME280;50072;50.678;13.938;2022-12-07T09:13:51;99192.22;;;3.04;88.05
63903;BME280;50072;50.678;13.938;2022-12-07T09:16:17;99186.06;;;2.96;89.64
63903;BME280;50072;50.678;13.938;2022-12-07T09:18:43;99194.88;;;3.02;88.32
63903;BME280;50072;50.678;13.938;2022-12-07T09:21:09;99193.97;;;3.11;87.45
63903;BME280;50072;50.678;13.938;2022-12-07T09:23:35;99193.00;;;3.37;87.64
63903;BME280;50072;50.678;13.938;2022-12-07T09:26:02;99192.06;;;3.47;87.58
63903;BME280;50072;50.678;13.938;2022-12-07T09:28:28;99195.47;;;3.77;85.06
63903;BME280;50072;50.678;13.938;2022-12-07T09:30:55;99193.53;;;4.07;83.81
63903;BME280;50072;50.678;13.938;2022-12-07T09:33:21;99195.22;;;4.17;82.42
63903;BME280;50072;50.678;13.938;2022-12-07T09:35:49;99193.44;;;4.16;83.03
63903;BME280;50072;50.678;13.938;2022-12-07T09:38:15;99197.84;;;4.20;82.12
63903;BME280;50072;50.678;13.938;2022-12-07T09:40:42;99194.28;;;4.24;82.42
63903;BME280;50072;50.678;13.938;2022-12-07T09:43:13;99182.75;;;4.31;83.31
63903;BME280;50072;50.678;13.938;2022-12-07T09:45:44;99182.69;;;4.41;82.83
63903;BME280;50072;50.678;13.938;2022-12-07T09:48:22;99179.63;;;4.86;81.84
63903;BME280;50072;50.678;13.938;2022-12-07T09:50:57;99177.66;;;5.08;81.02
63903;BME280;50072;50.678;13.938;2022-12-07T09:53:33;99180.41;;;4.95;79.85
63903;BME280;50072;50.678;13.938;2022-12-07T09:56:05;99167.28;;;4.84;80.68
63903;BME280;50072;50.678;13.938;2022-12-07T09:58:32;99162.94;;;4.76;81.88
63903;BME280;50072;50.678;13.938;2022-12-07T10:03:37;99167.41;;;4.71;82.88
63903;BME280;50072;50.678;13.938;2022-12-07T10:06:05;99159.50;;;4.68;82.95
63903;BME280;50072;50.678;13.938;2022-12-07T10:08:32;99161.16;;;4.78;81.61
63903;BME280;50072;50.678;13.938;2022-12-07T10:11:01;99162.94;;;4.79;81.76
63903;BME280;50072;50.678;13.938;2022-12-07T10:13:41;99159.34;;;4.80;82.90
63903;BME280;50072;50.678;13.938;2022-12-07T10:16:30;99168.03;;;4.94;82.33
63903;BME280;50072;50.678;13.938;2022-12-07T10:19:17;99167.16;;;4.95;82.87
63903;BME280;50072;50.678;13.938;2022-12-07T10:22:00;99160.81;;;5.09;82.37
63903;BME280;50072;50.678;13.938;2022-12-07T10:24:26;99158.88;;;5.26;82.22
63903;BME280;50072;50.678;13.938;2022-12-07T10:26:53;99160.31;;;5.52;81.74
63903;BME280;50072;50.678;13.938;2022-12-07T10:29:23;99144.19;;;5.67;81.38
63903;BME280;50072;50.678;13.938;2022-12-07T10:31:56;99150.31;;;5.73;80.48
63903;BME280;50072;50.678;13.938;2022-12-07T10:34:36;99159.19;;;5.70;79.83
63903;BME280;50072;50.678;13.938;2022-12-07T10:37:17;99143.44;;;5.58;77.86
63903;BME280;50072;50.678;13.938;2022-12-07T10:39:48;99148.84;;;5.48;77.07
63903;BME280;50072;50.678;13.938;2022-12-07T10:42:31;99141.47;;;5.72;75.76
63903;BME280;50072;50.678;13.938;2022-12-07T10:47:42;99136.47;;;6.13;69.27
63903;BME280;50072;50.678;13.938;2022-12-07T11:04:12;99138.03;;;7.26;63.35
63903;BME280;50072;50.678;13.938;2022-12-07T11:06:52;99131.50;;;7.41;63.70
63903;BME280;50072;50.678;13.938;2022-12-07T11:17:18;99120.22;;;8.47;58.38
63903;BME280;50072;50.678;13.938;2022-12-07T11:19:54;99122.28;;;9.03;57.07
63903;BME280;50072;50.678;13.938;2022-12-07T11:22:43;99116.19;;;8.67;58.20
63903;BME280;50072;50.678;13.938;2022-12-07T11:25:32;99116.78;;;8.04;60.98
63903;BME280;50072;50.678;13.938;2022-12-07T11:28:11;99108.44;;;7.81;62.24
63903;BME280;50072;50.678;13.938;2022-12-07T11:33:31;99108.50;;;6.93;64.31
63903;BME280;50072;50.678;13.938;2022-12-07T11:41:05;99109.53;;;6.37;66.48
63903;BME280;50072;50.678;13.938;2022-12-07T11:44:24;99109.34;;;5.91;67.22
63903;BME280;50072;50.678;13.938;2022-12-07T11:46:58;99105.38;;;5.57;68.89
63903;BME280;50072;50.678;13.938;2022-12-07T11:49:45;99092.38;;;5.39;70.09
63903;BME280;50072;50.678;13.938;2022-12-07T11:52:22;99098.00;;;5.14;72.40
63903;BME280;50072;50.678;13.938;2022-12-07T11:54:51;99092.13;;;4.87;74.33
63903;BME280;50072;50.678;13.938;2022-12-07T11:57:25;99095.81;;;4.72;74.25
63903;BME280;50072;50.678;13.938;2022-12-07T11:59:57;99078.34;;;4.54;74.97
63903;BME280;50072;50.678;13.938;2022-12-07T12:02:32;99072.97;;;4.59;75.28
63903;BME280;50072;50.678;13.938;2022-12-07T12:05:19;99089.91;;;4.45;74.08
63903;BME280;50072;50.678;13.938;2022-12-07T12:07:52;99080.22;;;4.43;76.32
63903;BME280;50072;50.678;13.938;2022-12-07T12:10:35;99077.56;;;4.41;77.42
63903;BME280;50072;50.678;13.938;2022-12-07T12:15:51;99076.91;;;4.19;79.90
63903;BME280;50072;50.678;13.938;2022-12-07T12:18:27;99091.97;;;4.12;81.50
63903;BME280;50072;50.678;13.938;2022-12-07T12:21:03;99083.22;;;4.03;82.67
63903;BME280;50072;50.678;13.938;2022-12-07T12:23:56;99079.81;;;3.88;83.89
63903;BME280;50072;50.678;13.938;2022-12-07T12:26:27;99086.91;;;3.82;83.03
63903;BME280;50072;50.678;13.938;2022-12-07T12:29:06;99079.00;;;3.77;85.22
63903;BME280;50072;50.678;13.938;2022-12-07T12:31:37;99083.44;;;3.75;84.99
63903;BME280;50072;50.678;13.938;2022-12-07T12:34:31;99086.06;;;3.72;84.62
63903;BME280;50072;50.678;13.938;2022-12-07T12:36:58;99092.25;;;3.75;84.67
63903;BME280;50072;50.678;13.938;2022-12-07T12:39:24;99085.97;;;3.87;84.08
63903;BME280;50072;50.678;13.938;2022-12-07T12:41:55;99075.34;;;3.90;83.29
63903;BME280;50072;50.678;13.938;2022-12-07T12:49:34;99072.69;;;3.96;82.85
63903;BME280;50072;50.678;13.938;2022-12-07T12:57:35;99061.13;;;4.07;83.13
63903;BME280;50072;50.678;13.938;2022-12-07T13:02:53;99064.63;;;4.12;82.26
63903;BME280;50072;50.678;13.938;2022-12-07T13:05:25;99068.25;;;3.98;82.23
63903;BME280;50072;50.678;13.938;2022-12-07T13:07:54;99057.75;;;3.86;83.86
63903;BME280;50072;50.678;13.938;2022-12-07T13:15:55;99059.66;;;3.69;84.02
63903;BME280;50072;50.678;13.938;2022-12-07T13:18:38;99058.72;;;3.73;84.23
63903;BME280;50072;50.678;13.938;2022-12-07T13:31:53;99061.31;;;3.82;84.54
63903;BME280;50072;50.678;13.938;2022-12-07T13:37:24;99052.53;;;3.77;83.34
63903;BME280;50072;50.678;13.938;2022-12-07T13:39:53;99051.59;;;3.83;84.51
63903;BME280;50072;50.678;13.938;2022-12-07T13:42:34;99049.81;;;3.86;83.78
63903;BME280;50072;50.678;13.938;2022-12-07T13:48:58;99063.00;;;3.92;83.40
63903;BME280;50072;50.678;13.938;2022-12-07T13:51:00;99054.13;;;4.00;82.97
63903;BME280;50072;50.678;13.938;2022-12-07T13:53:27;99053.19;;;4.07;83.27
63903;BME280;50072;50.678;13.938;2022-12-07T13:56:00;99053.16;;;4.10;82.43
63903;BME280;50072;50.678;13.938;2022-12-07T13:58:30;99060.31;;;3.95;82.22
63903;BME280;50072;50.678;13.938;2022-12-07T14:00:57;99050.59;;;3.97;83.44
63903;BME280;50072;50.678;13.938;2022-12-07T14:03:28;99061.22;;;3.94;83.05
63903;BME280;50072;50.678;13.938;2022-12-07T14:06:15;99055.94;;;3.91;82.86
63903;BME280;50072;50.678;13.938;2022-12-07T14:08:43;99055.09;;;3.85;83.44
63903;BME280;50072;50.678;13.938;2022-12-07T14:11:19;99055.16;;;3.78;83.44
63903;BME280;50072;50.678;13.938;2022-12-07T14:18:43;99057.78;;;3.83;82.68
63903;BME280;50072;50.678;13.938;2022-12-07T14:23:36;99052.38;;;3.95;82.25
63903;BME280;50072;50.678;13.938;2022-12-07T14:26:11;99049.75;;;3.95;82.41
63903;BME280;50072;50.678;13.938;2022-12-07T14:28:39;99046.94;;;4.14;83.92
63903;BME280;50072;50.678;13.938;2022-12-07T14:31:14;99050.50;;;4.10;80.41
63903;BME280;50072;50.678;13.938;2022-12-07T14:33:41;99047.94;;;3.97;80.09
63903;BME280;50072;50.678;13.938;2022-12-07T14:36:14;99047.16;;;3.86;80.07
63903;BME280;50072;50.678;13.938;2022-12-07T14:38:41;99056.84;;;3.87;81.03
63903;BME280;50072;50.678;13.938;2022-12-07T14:41:17;99049.81;;;3.83;81.10
63903;BME280;50072;50.678;13.938;2022-12-07T14:44:11;99048.09;;;3.80;81.08
63903;BME280;50072;50.678;13.938;2022-12-07T14:46:37;99048.13;;;3.76;81.95
63903;BME280;50072;50.678;13.938;2022-12-07T14:49:03;99044.66;;;3.68;82.14
63903;BME280;50072;50.678;13.938;2022-12-07T14:51:29;99046.44;;;3.66;81.14
63903;BME280;50072;50.678;13.938;2022-12-07T14:53:55;99044.69;;;3.63;80.83
63903;BME280;50072;50.678;13.938;2022-12-07T14:56:21;99053.47;;;3.71;80.83
63903;BME280;50072;50.678;13.938;2022-12-07T14:58:47;99049.13;;;3.62;81.55
63903;BME280;50072;50.678;13.938;2022-12-07T15:01:14;99044.75;;;3.57;82.89
63903;BME280;50072;50.678;13.938;2022-12-07T15:03:39;99057.94;;;3.61;83.81
63903;BME280;50072;50.678;13.938;2022-12-07T15:06:06;99065.00;;;3.59;85.03
63903;BME280;50072;50.678;13.938;2022-12-07T15:08:33;99053.50;;;3.60;85.32
63903;BME280;50072;50.678;13.938;2022-12-07T15:10:58;99052.59;;;3.65;85.94